sensor_id;sensor_type;location;lat;lon;timestamp;pressure;altitude;pressure_sealevel;temperature;humidity
55550;BME280;41397;49.972;18.944;2023-09-19T00:00:28;101162.04;;;24.37;58.52
55550;BME280;41397;49.972;18.944;2023-09-19T00:03:35;101155.59;;;24.37;58.70
55550;BME280;41397;49.972;18.944;2023-09-19T00:06:39;101164.59;;;24.32;58.70
55550;BME280;41397;49.972;18.944;2023-09-19T00:09:42;101156.81;;;24.28;59.01
55550;BME280;41397;49.972;18.944;2023-09-19T00:12:45;101149.08;;;24.23;59.14
55550;BME280;41397;49.972;18.944;2023-09-19T00:15:47;101148.85;;;24.25;59.20
55550;BME280;41397;49.972;18.944;2023-09-19T00:18:52;101152.06;;;24.22;59.01
55550;BME280;41397;49.972;18.944;2023-09-19T00:21:53;101143.91;;;24.20;59.17
55550;BME280;41397;49.972;18.944;2023-09-19T00:24:55;101144.09;;;24.19;59.19
55550;BME280;41397;49.972;18.944;2023-09-19T00:27:56;101151.21;;;24.21;59.29
55550;BME280;41397;49.972;18.944;2023-09-19T00:30:59;101140.70;;;24.23;59.17
55550;BME280;41397;49.972;18.944;2023-09-19T00:34:02;101140.27;;;24.26;59.14
55550;BME280;41397;49.972;18.944;2023-09-19T00:37:11;101137.04;;;24.23;59.49
55550;BME280;41397;49.972;18.944;2023-09-19T00:40:14;101143.68;;;24.22;59.59
55550;BME280;41397;49.972;18.944;2023-09-19T00:43:17;101131.45;;;24.23;59.54
55550;BME280;41397;49.972;18.944;2023-09-19T00:46:18;101134.02;;;24.24;59.66
55550;BME280;41397;49.972;18.944;2023-09-19T00:49:20;101136.40;;;24.27;59.50
55550;BME280;41397;49.972;18.944;2023-09-19T00:52:24;101120.27;;;24.23;59.89
55550;BME280;41397;49.972;18.944;2023-09-19T00:55:26;101115.31;;;24.25;59.71
55550;BME280;41397;49.972;18.944;2023-09-19T00:58:34;101108.67;;;24.26;59.82
55550;BME280;41397;49.972;18.944;2023-09-19T01:01:36;101110.59;;;24.25;59.76
55550;BME280;41397;49.972;18.944;2023-09-19T01:04:41;101108.67;;;24.26;59.76
55550;BME280;41397;49.972;18.944;2023-09-19T01:07:48;101111.89;;;24.23;59.90
55550;BME280;41397;49.972;18.944;2023-09-19T01:10:54;101099.63;;;24.24;60.00
55550;BME280;41397;49.972;18.944;2023-09-19T01:20:32;101098.53;;;24.18;60.20
55550;BME280;41397;49.972;18.944;2023-09-19T01:23:48;101097.87;;;24.16;60.20
55550;BME280;41397;49.972;18.944;2023-09-19T01:27:02;101083.89;;;24.16;60.19
55550;BME280;41397;49.972;18.944;2023-09-19T01:30:17;101080.66;;;24.12;60.24
55550;BME280;41397;49.972;18.944;2023-09-19T01:33:14;101086.26;;;24.12;60.23
55550;BME280;41397;49.972;18.944;2023-09-19T01:36:17;101084.98;;;24.15;60.36
55550;BME280;41397;49.972;18.944;2023-09-19T01:39:19;101084.75;;;24.17;60.03
55550;BME280;41397;49.972;18.944;2023-09-19T01:42:31;101073.57;;;24.17;60.02
55550;BME280;41397;49.972;18.944;2023-09-19T01:48:58;101074.65;;;24.15;60.21
55550;BME280;41397;49.972;18.944;2023-09-19T01:52:12;101073.57;;;24.17;60.30
55550;BME280;41397;49.972;18.944;2023-09-19T01:55:20;101084.12;;;24.14;60.65
55550;BME280;41397;49.972;18.944;2023-09-19T01:58:33;101080.23;;;24.15;61.04
55550;BME280;41397;49.972;18.944;2023-09-19T02:01:37;101086.03;;;24.14;62.00
55550;BME280;41397;49.972;18.944;2023-09-19T02:04:39;101077.01;;;24.12;62.10
55550;BME280;41397;49.972;18.944;2023-09-19T02:07:40;101078.05;;;24.11;62.62
55550;BME280;41397;49.972;18.944;2023-09-19T02:10:42;101079.38;;;24.15;62.25
55550;BME280;41397;49.972;18.944;2023-09-19T02:13:43;101086.50;;;24.18;62.86
55550;BME280;41397;49.972;18.944;2023-09-19T02:16:45;101093.59;;;24.20;62.85
55550;BME280;41397;49.972;18.944;2023-09-19T02:19:46;101091.00;;;24.19;62.98
55550;BME280;41397;49.972;18.944;2023-09-19T02:22:48;101101.98;;;24.20;63.46
55550;BME280;41397;49.972;18.944;2023-09-19T02:25:54;101093.80;;;24.19;63.74
55550;BME280;41397;49.972;18.944;2023-09-19T02:28:55;101103.26;;;24.18;63.53
55550;BME280;41397;49.972;18.944;2023-09-19T02:31:56;101099.58;;;24.17;64.63
55550;BME280;41397;49.972;18.944;2023-09-19T02:34:58;101089.90;;;24.13;66.42
55550;BME280;41397;49.972;18.944;2023-09-19T02:38:00;101091.17;;;24.10;67.92
55550;BME280;41397;49.972;18.944;2023-09-19T02:41:01;101089.05;;;24.12;67.39
55550;BME280;41397;49.972;18.944;2023-09-19T02:44:04;101081.52;;;24.13;68.25
55550;BME280;41397;49.972;18.944;2023-09-19T02:47:14;101087.11;;;24.13;68.24
55550;BME280;41397;49.972;18.944;2023-09-19T02:50:17;101082.19;;;24.15;69.10
55550;BME280;41397;49.972;18.944;2023-09-19T02:53:19;101080.66;;;24.12;69.66
55550;BME280;41397;49.972;18.944;2023-09-19T02:56:20;101080.66;;;24.12;69.43
55550;BME280;41397;49.972;18.944;2023-09-19T02:59:25;101083.04;;;24.15;69.01
55550;BME280;41397;49.972;18.944;2023-09-19T03:02:29;101076.17;;;24.18;68.77
55550;BME280;41397;49.972;18.944;2023-09-19T03:05:35;101074.90;;;24.21;69.20
55550;BME280;41397;49.972;18.944;2023-09-19T03:08:39;101071.25;;;24.20;69.18
55550;BME280;41397;49.972;18.944;2023-09-19T03:11:42;101060.70;;;24.22;69.13
55550;BME280;41397;49.972;18.944;2023-09-19T03:14:49;101056.19;;;24.21;69.46
55550;BME280;41397;49.972;18.944;2023-09-19T03:17:52;101057.05;;;24.22;69.90
55550;BME280;41397;49.972;18.944;2023-09-19T03:20:55;101051.68;;;24.20;70.13
55550;BME280;41397;49.972;18.944;2023-09-19T03:23:57;101046.10;;;24.20;70.47
55550;BME280;41397;49.972;18.944;2023-09-19T03:26:58;101049.09;;;24.19;70.58
55550;BME280;41397;49.972;18.944;2023-09-19T03:29:59;101046.10;;;24.20;70.35
55550;BME280;41397;49.972;18.944;2023-09-19T03:33:01;101042.02;;;24.23;70.39
55550;BME280;41397;49.972;18.944;2023-09-19T03:36:03;101037.29;;;24.23;70.69
55550;BME280;41397;49.972;18.944;2023-09-19T03:39:08;101048.47;;;24.23;71.02
55550;BME280;41397;49.972;18.944;2023-09-19T03:42:11;101050.18;;;24.24;71.14
55550;BME280;41397;49.972;18.944;2023-09-19T03:45:12;101040.94;;;24.24;70.48
55550;BME280;41397;49.972;18.944;2023-09-19T03:48:13;101054.91;;;24.24;70.83
55550;BME280;41397;49.972;18.944;2023-09-19T03:51:15;101055.98;;;24.23;71.86
55550;BME280;41397;49.972;18.944;2023-09-19T03:54:16;101057.05;;;24.22;71.65
55550;BME280;41397;49.972;18.944;2023-09-19T03:57:20;101058.13;;;24.21;71.87
55550;BME280;41397;49.972;18.944;2023-09-19T04:00:21;101064.16;;;24.24;71.05
55550;BME280;41397;49.972;18.944;2023-09-19T04:03:26;101058.56;;;24.24;71.80
55550;BME280;41397;49.972;18.944;2023-09-19T04:06:40;101061.36;;;24.24;71.84
55550;BME280;41397;49.972;18.944;2023-09-19T04:09:42;101063.30;;;24.24;72.23
55550;BME280;41397;49.972;18.944;2023-09-19T04:15:56;101070.83;;;24.23;71.88
55550;BME280;41397;49.972;18.944;2023-09-19T04:18:57;101067.37;;;24.21;72.40
55550;BME280;41397;49.972;18.944;2023-09-19T04:21:59;101075.55;;;24.23;71.98
55550;BME280;41397;49.972;18.944;2023-09-19T04:25:00;101079.40;;;24.22;72.34
55550;BME280;41397;49.972;18.944;2023-09-19T04:28:01;101082.00;;;24.23;72.51
55550;BME280;41397;49.972;18.944;2023-09-19T04:31:05;101086.93;;;24.21;72.59
55550;BME280;41397;49.972;18.944;2023-09-19T04:34:14;101094.46;;;24.21;72.22
55550;BME280;41397;49.972;18.944;2023-09-19T04:37:18;101087.35;;;24.18;72.60
55550;BME280;41397;49.972;18.944;2023-09-19T04:40:19;101094.21;;;24.15;72.58
55550;BME280;41397;49.972;18.944;2023-09-19T04:43:23;101093.96;;;24.10;73.17
55550;BME280;41397;49.972;18.944;2023-09-19T04:48:56;101087.70;;;24.02;73.51
55550;BME280;41397;49.972;18.944;2023-09-19T04:51:58;101089.41;;;24.03;73.04
55550;BME280;41397;49.972;18.944;2023-09-19T04:54:59;101092.20;;;24.03;73.44
55550;BME280;41397;49.972;18.944;2023-09-19T04:58:04;101104.65;;;24.00;73.58
55550;BME280;41397;49.972;18.944;2023-09-19T05:01:06;101106.41;;;24.01;73.54
55550;BME280;41397;49.972;18.944;2023-09-19T05:04:13;101099.92;;;24.01;73.55
55550;BME280;41397;49.972;18.944;2023-09-19T05:07:14;101101.66;;;24.02;73.57
55550;BME280;41397;49.972;18.944;2023-09-19T05:10:16;101102.71;;;24.01;73.27
55550;BME280;41397;49.972;18.944;2023-09-19T05:13:19;101108.30;;;24.01;73.68
55550;BME280;41397;49.972;18.944;2023-09-19T05:16:20;101104.03;;;23.98;73.77
55550;BME280;41397;49.972;18.944;2023-09-19T05:19:23;101116.05;;;23.99;73.72
55550;BME280;41397;49.972;18.944;2023-09-19T05:22:26;101117.10;;;23.98;74.00
55550;BME280;41397;49.972;18.944;2023-09-19T05:25:29;101114.12;;;23.99;73.69
55550;BME280;41397;49.972;18.944;2023-09-19T05:28:31;101125.29;;;23.99;73.82
55550;BME280;41397;49.972;18.944;2023-09-19T05:31:35;101115.20;;;23.98;74.01
55550;BME280;41397;49.972;18.944;2023-09-19T05:34:43;101117.76;;;24.00;74.13
55550;BME280;41397;49.972;18.944;2023-09-19T05:37:46;101135.38;;;24.00;74.03
55550;BME280;41397;49.972;18.944;2023-09-19T05:40:50;101132.17;;;24.03;74.26
55550;BME280;41397;49.972;18.944;2023-09-19T05:43:51;101125.48;;;23.98;74.11
55550;BME280;41397;49.972;18.944;2023-09-19T05:46:53;101139.25;;;23.99;73.85
55550;BME280;41397;49.972;18.944;2023-09-19T05:49:57;101136.66;;;23.98;74.44
55550;BME280;41397;49.972;18.944;2023-09-19T05:53:00;101137.93;;;23.95;74.16
55550;BME280;41397;49.972;18.944;2023-09-19T05:56:01;101133.42;;;23.94;73.84
55550;BME280;41397;49.972;18.944;2023-09-19T05:59:03;101140.02;;;23.86;73.94
55550;BME280;41397;49.972;18.944;2023-09-19T06:02:06;101148.90;;;23.68;73.25
55550;BME280;41397;49.972;18.944;2023-09-19T06:05:13;101151.99;;;23.52;72.92
55550;BME280;41397;49.972;18.944;2023-09-19T06:08:15;101154.30;;;23.48;72.53
55550;BME280;41397;49.972;18.944;2023-09-19T06:11:17;101153.32;;;23.35;72.76
55550;BME280;41397;49.972;18.944;2023-09-19T06:14:22;101161.52;;;23.36;73.01
55550;BME280;41397;49.972;18.944;2023-09-19T06:17:29;101170.56;;;23.38;72.86
55550;BME280;41397;49.972;18.944;2023-09-19T06:20:32;101169.07;;;23.42;72.68
55550;BME280;41397;49.972;18.944;2023-09-19T06:23:34;101178.57;;;23.48;73.10
55550;BME280;41397;49.972;18.944;2023-09-19T06:26:36;101182.21;;;23.48;72.81
55550;BME280;41397;49.972;18.944;2023-09-19T06:29:37;101191.48;;;23.49;73.50
55550;BME280;41397;49.972;18.944;2023-09-19T06:32:39;101190.60;;;23.48;73.05
55550;BME280;41397;49.972;18.944;2023-09-19T06:35:40;101203.97;;;23.53;72.64
55550;BME280;41397;49.972;18.944;2023-09-19T06:38:44;101209.73;;;23.52;72.55
55550;BME280;41397;49.972;18.944;2023-09-19T06:41:46;101225.84;;;23.49;72.11
55550;BME280;41397;49.972;18.944;2023-09-19T06:44:47;101229.89;;;23.47;72.01
55550;BME280;41397;49.972;18.944;2023-09-19T06:47:50;101238.46;;;23.45;71.67
55550;BME280;41397;49.972;18.944;2023-09-19T06:50:53;101231.07;;;23.38;71.32
55550;BME280;41397;49.972;18.944;2023-09-19T06:53:56;101244.84;;;23.39;71.23
55550;BME280;41397;49.972;18.944;2023-09-19T06:56:59;101254.08;;;23.40;71.42
55550;BME280;41397;49.972;18.944;2023-09-19T07:00:01;101268.70;;;23.42;71.34
55550;BME280;41397;49.972;18.944;2023-09-19T07:03:07;101264.38;;;23.39;71.51
55550;BME280;41397;49.972;18.944;2023-09-19T07:06:14;101276.13;;;23.35;71.13
55550;BME280;41397;49.972;18.944;2023-09-19T07:09:19;101285.36;;;23.35;70.75
55550;BME280;41397;49.972;18.944;2023-09-19T07:12:23;101288.15;;;23.35;70.61
55550;BME280;41397;49.972;18.944;2023-09-19T07:15:25;101288.37;;;23.34;70.54
55550;BME280;41397;49.972;18.944;2023-09-19T07:18:26;101296.64;;;23.27;70.62
55550;BME280;41397;49.972;18.944;2023-09-19T07:21:28;101297.32;;;23.29;70.60
55550;BME280;41397;49.972;18.944;2023-09-19T07:24:29;101294.13;;;23.32;70.77
55550;BME280;41397;49.972;18.944;2023-09-19T07:27:30;101302.31;;;23.34;71.01
55550;BME280;41397;49.972;18.944;2023-09-19T07:30:31;101303.18;;;23.34;71.22
55550;BME280;41397;49.972;18.944;2023-09-19T07:33:35;101312.63;;;23.33;71.25
55550;BME280;41397;49.972;18.944;2023-09-19T07:36:37;101312.63;;;23.33;71.39
55550;BME280;41397;49.972;18.944;2023-09-19T07:39:39;101325.23;;;23.29;71.71
55550;BME280;41397;49.972;18.944;2023-09-19T07:42:42;101334.45;;;23.30;71.42
55550;BME280;41397;49.972;18.944;2023-09-19T07:45:47;101336.21;;;23.31;71.50
55550;BME280;41397;49.972;18.944;2023-09-19T07:48:50;101347.37;;;23.31;71.67
55550;BME280;41397;49.972;18.944;2023-09-19T07:51:51;101345.44;;;23.31;71.65
55550;BME280;41397;49.972;18.944;2023-09-19T07:54:55;101345.44;;;23.31;71.77
55550;BME280;41397;49.972;18.944;2023-09-19T07:57:58;101357.06;;;23.35;72.15
55550;BME280;41397;49.972;18.944;2023-09-19T08:01:06;101359.86;;;23.35;71.82
55550;BME280;41397;49.972;18.944;2023-09-19T08:04:08;101365.45;;;23.35;71.88
55550;BME280;41397;49.972;18.944;2023-09-19T08:07:09;101381.32;;;23.34;72.01
55550;BME280;41397;49.972;18.944;2023-09-19T08:10:12;101384.51;;;23.31;72.41
55550;BME280;41397;49.972;18.944;2023-09-19T08:13:25;101398.18;;;23.26;72.56
55550;BME280;41397;49.972;18.944;2023-09-19T08:16:27;101387.70;;;23.28;72.42
55550;BME280;41397;49.972;18.944;2023-09-19T08:19:28;101378.64;;;23.26;72.25
55550;BME280;41397;49.972;18.944;2023-09-19T08:22:32;101388.55;;;23.29;72.34
55550;BME280;41397;49.972;18.944;2023-09-19T08:25:34;101392.02;;;23.31;72.19
55550;BME280;41397;49.972;18.944;2023-09-19T08:28:36;101389.91;;;23.33;72.16
55550;BME280;41397;49.972;18.944;2023-09-19T08:31:37;101395.49;;;23.33;72.49
55550;BME280;41397;49.972;18.944;2023-09-19T08:34:39;101397.68;;;23.37;72.29
55550;BME280;41397;49.972;18.944;2023-09-19T08:37:40;101405.59;;;23.34;72.50
55550;BME280;41397;49.972;18.944;2023-09-19T08:40:42;101411.84;;;23.36;72.25
55550;BME280;41397;49.972;18.944;2023-09-19T08:43:45;101418.57;;;23.41;72.63
55550;BME280;41397;49.972;18.944;2023-09-19T08:46:49;101421.16;;;23.43;72.87
55550;BME280;41397;49.972;18.944;2023-09-19T08:50:04;101420.30;;;23.42;72.72
55550;BME280;41397;49.972;18.944;2023-09-19T08:56:29;101423.37;;;23.47;73.26
55550;BME280;41397;49.972;18.944;2023-09-19T08:59:31;101422.30;;;23.48;73.20
55550;BME280;41397;49.972;18.944;2023-09-19T09:02:38;101421.72;;;23.53;73.01
55550;BME280;41397;49.972;18.944;2023-09-19T09:05:44;101426.91;;;23.56;73.11
55550;BME280;41397;49.972;18.944;2023-09-19T09:08:48;101417.09;;;23.60;73.32
55550;BME280;41397;49.972;18.944;2023-09-19T09:11:51;101431.71;;;23.62;73.55
55550;BME280;41397;49.972;18.944;2023-09-19T09:14:54;101422.46;;;23.62;73.55
55550;BME280;41397;49.972;18.944;2023-09-19T09:17:57;101432.38;;;23.64;73.22
55550;BME280;41397;49.972;18.944;2023-09-19T09:21:00;101432.59;;;23.63;73.50
55550;BME280;41397;49.972;18.944;2023-09-19T09:27:16;101432.38;;;23.64;73.33
55550;BME280;41397;49.972;18.944;2023-09-19T09:33:35;101433.91;;;23.67;72.97
55550;BME280;41397;49.972;18.944;2023-09-19T09:36:38;101431.98;;;23.67;73.05
55550;BME280;41397;49.972;18.944;2023-09-19T09:42:59;101441.22;;;23.68;73.30
55550;BME280;41397;49.972;18.944;2023-09-19T09:46:13;101447.70;;;23.68;73.06
55550;BME280;41397;49.972;18.944;2023-09-19T09:49:28;101439.32;;;23.68;73.44
55550;BME280;41397;49.972;18.944;2023-09-19T09:52:44;101443.82;;;23.69;73.69
55550;BME280;41397;49.972;18.944;2023-09-19T09:59:06;101446.62;;;23.69;73.56
55550;BME280;41397;49.972;18.944;2023-09-19T10:02:08;101447.48;;;23.70;73.71
55550;BME280;41397;49.972;18.944;2023-09-19T10:05:19;101439.97;;;23.70;73.50
55550;BME280;41397;49.972;18.944;2023-09-19T10:08:33;101458.50;;;23.72;73.63
55550;BME280;41397;49.972;18.944;2023-09-19T10:11:45;101456.39;;;23.74;73.39
55550;BME280;41397;49.972;18.944;2023-09-19T10:14:48;101458.30;;;23.73;73.34
55550;BME280;41397;49.972;18.944;2023-09-19T10:17:52;101455.71;;;23.72;73.52
55550;BME280;41397;49.972;18.944;2023-09-19T10:20:57;101463.23;;;23.71;73.61
55550;BME280;41397;49.972;18.944;2023-09-19T10:23:59;101461.44;;;23.70;73.46
55550;BME280;41397;49.972;18.944;2023-09-19T10:27:06;101468.96;;;23.69;73.67
55550;BME280;41397;49.972;18.944;2023-09-19T10:30:10;101471.76;;;23.69;73.55
55550;BME280;41397;49.972;18.944;2023-09-19T10:33:22;101480.99;;;23.70;73.63
55550;BME280;41397;49.972;18.944;2023-09-19T10:36:27;101480.99;;;23.70;73.60
55550;BME280;41397;49.972;18.944;2023-09-19T10:39:34;101487.84;;;23.67;73.70
55550;BME280;41397;49.972;18.944;2023-09-19T10:42:40;101488.05;;;23.66;74.06
55550;BME280;41397;49.972;18.944;2023-09-19T10:45:47;101495.35;;;23.67;73.60
55550;BME280;41397;49.972;18.944;2023-09-19T10:48:50;101499.40;;;23.64;73.83
55550;BME280;41397;49.972;18.944;2023-09-19T10:51:57;101508.16;;;23.61;73.59
55550;BME280;41397;49.972;18.944;2023-09-19T10:55:01;101509.70;;;23.64;73.49
55550;BME280;41397;49.972;18.944;2023-09-19T10:58:05;101519.15;;;23.63;73.59
55550;BME280;41397;49.972;18.944;2023-09-19T11:01:16;101514.62;;;23.62;73.60
55550;BME280;41397;49.972;18.944;2023-09-19T11:04:30;101511.81;;;23.62;73.79
55550;BME280;41397;49.972;18.944;2023-09-19T11:10:49;101519.34;;;23.61;74.46
55550;BME280;41397;49.972;18.944;2023-09-19T11:20:21;101520.41;;;23.60;74.16
55550;BME280;41397;49.972;18.944;2023-09-19T11:23:36;101523.20;;;23.60;74.14
55550;BME280;41397;49.972;18.944;2023-09-19T11:26:44;101524.91;;;23.61;74.16
55550;BME280;41397;49.972;18.944;2023-09-19T11:30:24;101516.46;;;23.55;73.94
55550;BME280;41397;49.972;18.944;2023-09-19T11:36:16;101520.50;;;23.52;74.34
55550;BME280;41397;49.972;18.944;2023-09-19T11:39:25;101531.67;;;23.52;74.45
55550;BME280;41397;49.972;18.944;2023-09-19T11:49:06;101540.91;;;23.53;74.39
55550;BME280;41397;49.972;18.944;2023-09-19T11:52:23;101538.80;;;23.55;74.57
55550;BME280;41397;49.972;18.944;2023-09-19T11:55:28;101536.87;;;23.55;74.41
55550;BME280;41397;49.972;18.944;2023-09-19T11:58:35;101537.34;;;23.59;74.41
55550;BME280;41397;49.972;18.944;2023-09-19T12:01:38;101537.80;;;23.62;74.42
55550;BME280;41397;49.972;18.944;2023-09-19T12:04:46;101542.35;;;23.63;74.14
55550;BME280;41397;49.972;18.944;2023-09-19T12:07:50;101540.02;;;23.67;74.35
55550;BME280;41397;49.972;18.944;2023-09-19T12:10:53;101539.10;;;23.75;74.35
55550;BME280;41397;49.972;18.944;2023-09-19T12:13:56;101542.86;;;23.82;74.70
55550;BME280;41397;49.972;18.944;2023-09-19T12:17:01;101538.88;;;23.91;74.73
55550;BME280;41397;49.972;18.944;2023-09-19T12:20:05;101542.43;;;24.00;74.94
55550;BME280;41397;49.972;18.944;2023-09-19T12:23:15;101541.85;;;24.04;75.19
55550;BME280;41397;49.972;18.944;2023-09-19T12:26:17;101546.70;;;24.17;74.96
55550;BME280;41397;49.972;18.944;2023-09-19T12:29:22;101545.34;;;24.28;74.52
55550;BME280;41397;49.972;18.944;2023-09-19T12:35:41;101540.28;;;24.53;73.89
55550;BME280;41397;49.972;18.944;2023-09-19T12:38:48;101541.20;;;24.60;72.66
55550;BME280;41397;49.972;18.944;2023-09-19T12:41:50;101542.33;;;24.66;71.24
55550;BME280;41397;49.972;18.944;2023-09-19T12:44:52;101541.28;;;24.67;70.26
55550;BME280;41397;49.972;18.944;2023-09-19T12:51:11;101526.94;;;24.76;70.23
55550;BME280;41397;49.972;18.944;2023-09-19T12:54:22;101534.73;;;24.81;69.30
55550;BME280;41397;49.972;18.944;2023-09-19T12:57:26;101539.10;;;24.90;70.05
55550;BME280;41397;49.972;18.944;2023-09-19T13:03:42;101530.63;;;25.05;68.49
55550;BME280;41397;49.972;18.944;2023-09-19T13:06:48;101526.16;;;25.11;68.82
55550;BME280;41397;49.972;18.944;2023-09-19T13:16:18;101536.82;;;25.22;68.66
55550;BME280;41397;49.972;18.944;2023-09-19T13:22:44;101527.16;;;25.24;67.90
55550;BME280;41397;49.972;18.944;2023-09-19T13:25:54;101530.82;;;25.25;68.10
55550;BME280;41397;49.972;18.944;2023-09-19T13:28:57;101532.16;;;25.29;67.97
55550;BME280;41397;49.972;18.944;2023-09-19T13:31:58;101531.67;;;25.25;67.58
55550;BME280;41397;49.972;18.944;2023-09-19T13:34:59;101532.52;;;25.26;67.48
55550;BME280;41397;49.972;18.944;2023-09-19T13:38:02;101530.14;;;25.23;67.30
55550;BME280;41397;49.972;18.944;2023-09-19T13:41:04;101529.09;;;25.24;67.47
55550;BME280;41397;49.972;18.944;2023-09-19T13:44:05;101533.20;;;25.28;67.67
55550;BME280;41397;49.972;18.944;2023-09-19T13:47:07;101526.58;;;25.36;67.57
55550;BME280;41397;49.972;18.944;2023-09-19T13:50:14;101529.19;;;25.37;67.34
55550;BME280;41397;49.972;18.944;2023-09-19T13:53:15;101526.60;;;25.42;67.40
55550;BME280;41397;49.972;18.944;2023-09-19T13:56:17;101529.02;;;25.45;67.00
55550;BME280;41397;49.972;18.944;2023-09-19T13:59:19;101531.16;;;25.43;66.10
55550;BME280;41397;49.972;18.944;2023-09-19T14:02:24;101528.80;;;25.47;65.77
55550;BME280;41397;49.972;18.944;2023-09-19T14:05:26;101521.73;;;25.51;65.53
55550;BME280;41397;49.972;18.944;2023-09-19T14:08:30;101512.44;;;25.51;65.37
55550;BME280;41397;49.972;18.944;2023-09-19T14:11:39;101518.27;;;25.49;65.05
55550;BME280;41397;49.972;18.944;2023-09-19T14:14:40;101518.45;;;25.47;65.04
55550;BME280;41397;49.972;18.944;2023-09-19T14:17:42;101523.01;;;25.49;64.40
55550;BME280;41397;49.972;18.944;2023-09-19T14:20:46;101523.20;;;25.47;63.30
55550;BME280;41397;49.972;18.944;2023-09-19T14:23:48;101522.50;;;25.38;63.05
55550;BME280;41397;49.972;18.944;2023-09-19T14:26:50;101520.38;;;25.40;63.61
55550;BME280;41397;49.972;18.944;2023-09-19T14:29:51;101529.82;;;25.39;64.05
55550;BME280;41397;49.972;18.944;2023-09-19T14:32:53;101532.63;;;25.39;63.91
55550;BME280;41397;49.972;18.944;2023-09-19T14:35:54;101539.91;;;25.34;63.68
55550;BME280;41397;49.972;18.944;2023-09-19T14:38:56;101531.73;;;25.32;64.08
55550;BME280;41397;49.972;18.944;2023-09-19T14:42:00;101538.80;;;25.28;64.16
55550;BME280;41397;49.972;18.944;2023-09-19T14:45:02;101547.61;;;25.25;64.45
55550;BME280;41397;49.972;18.944;2023-09-19T14:48:05;101548.63;;;25.17;64.28
55550;BME280;41397;49.972;18.944;2023-09-19T14:51:07;101569.30;;;25.16;64.39
55550;BME280;41397;49.972;18.944;2023-09-19T14:54:13;101562.57;;;24.89;63.84
55550;BME280;41397;49.972;18.944;2023-09-19T14:57:14;101565.20;;;24.69;63.33
55550;BME280;41397;49.972;18.944;2023-09-19T15:00:16;101559.86;;;24.53;62.88
55550;BME280;41397;49.972;18.944;2023-09-19T15:03:19;101574.83;;;24.45;63.35
55550;BME280;41397;49.972;18.944;2023-09-19T15:06:20;101575.82;;;24.23;63.54
55550;BME280;41397;49.972;18.944;2023-09-19T15:09:25;101574.47;;;24.19;64.36
55550;BME280;41397;49.972;18.944;2023-09-19T15:12:27;101576.81;;;24.15;64.60
55550;BME280;41397;49.972;18.944;2023-09-19T15:15:36;101595.41;;;24.08;65.36
55550;BME280;41397;49.972;18.944;2023-09-19T15:18:40;101570.30;;;23.93;65.95
55550;BME280;41397;49.972;18.944;2023-09-19T15:21:43;101579.42;;;23.87;66.24
55550;BME280;41397;49.972;18.944;2023-09-19T15:24:44;101581.96;;;23.82;66.93
55550;BME280;41397;49.972;18.944;2023-09-19T15:27:46;101588.51;;;23.74;66.90
55550;BME280;41397;49.972;18.944;2023-09-19T15:30:47;101591.48;;;23.73;67.40
55550;BME280;41397;49.972;18.944;2023-09-19T15:33:48;101582.39;;;23.70;67.60
55550;BME280;41397;49.972;18.944;2023-09-19T15:36:50;101582.60;;;23.69;67.95
55550;BME280;41397;49.972;18.944;2023-09-19T15:39:52;101577.41;;;23.66;68.33
55550;BME280;41397;49.972;18.944;2023-09-19T15:42:56;101565.55;;;23.64;69.08
55550;BME280;41397;49.972;18.944;2023-09-19T15:46:00;101564.88;;;23.62;68.56
55550;BME280;41397;49.972;18.944;2023-09-19T15:49:02;101557.35;;;23.62;68.47
55550;BME280;41397;49.972;18.944;2023-09-19T15:52:04;101563.83;;;23.63;68.30
55550;BME280;41397;49.972;18.944;2023-09-19T15:55:06;101559.67;;;23.59;67.77
55550;BME280;41397;49.972;18.944;2023-09-19T15:58:09;101560.74;;;23.58;67.90
55550;BME280;41397;49.972;18.944;2023-09-19T16:01:11;101565.08;;;23.60;68.50
55550;BME280;41397;49.972;18.944;2023-09-19T16:04:12;101565.26;;;23.59;69.64
55550;BME280;41397;49.972;18.944;2023-09-19T16:07:15;101567.20;;;23.58;69.74
55550;BME280;41397;49.972;18.944;2023-09-19T16:10:16;101569.99;;;23.58;70.08
55550;BME280;41397;49.972;18.944;2023-09-19T16:13:18;101567.37;;;23.57;69.70
55550;BME280;41397;49.972;18.944;2023-09-19T16:16:20;101575.74;;;23.57;69.45
55550;BME280;41397;49.972;18.944;2023-09-19T16:19:24;101566.12;;;23.59;69.93
55550;BME280;41397;49.972;18.944;2023-09-19T16:22:25;101576.82;;;23.56;70.06
55550;BME280;41397;49.972;18.944;2023-09-19T16:25:27;101571.41;;;23.54;69.95
55550;BME280;41397;49.972;18.944;2023-09-19T16:28:28;101574.41;;;23.53;70.12
55550;BME280;41397;49.972;18.944;2023-09-19T16:31:31;101573.73;;;23.51;70.35
55550;BME280;41397;49.972;18.944;2023-09-19T16:34:33;101565.05;;;23.45;69.93
55550;BME280;41397;49.972;18.944;2023-09-19T16:37:37;101574.03;;;23.41;70.13
55550;BME280;41397;49.972;18.944;2023-09-19T16:40:39;101573.73;;;23.36;70.44
55550;BME280;41397;49.972;18.944;2023-09-19T16:43:42;101578.80;;;23.32;70.23
55550;BME280;41397;49.972;18.944;2023-09-19T16:46:44;101576.40;;;23.29;70.13
55550;BME280;41397;49.972;18.944;2023-09-19T16:49:45;101575.92;;;23.25;70.10
55550;BME280;41397;49.972;18.944;2023-09-19T16:52:46;101581.20;;;23.20;70.03
55550;BME280;41397;49.972;18.944;2023-09-19T16:55:48;101577.73;;;23.18;70.02
55550;BME280;41397;49.972;18.944;2023-09-19T16:58:50;101583.01;;;23.13;69.72